createdAt,value
2023-03-28T00:01:45.298Z,65.26
2023-03-28T00:04:12.705Z,65.68
2023-03-28T00:06:41.648Z,65.24
2023-03-28T00:09:09.177Z,65.21
2023-03-28T00:11:36.012Z,64.73
2023-03-28T00:14:03.779Z,64.78
2023-03-28T00:16:34.087Z,64.52
2023-03-28T00:19:11.579Z,64.54
2023-03-28T00:21:46.739Z,64.65
2023-03-28T00:24:16.087Z,64.41
2023-03-28T00:26:45.328Z,64.54
2023-03-28T00:29:26.100Z,65.33
2023-03-28T00:31:52.992Z,64.98
2023-03-28T00:34:19.798Z,64.76
2023-03-28T00:36:46.734Z,64.76
2023-03-28T00:39:14.327Z,64.89
2023-03-28T00:41:44.716Z,65.18
2023-03-28T00:44:50.859Z,64.93
2023-03-28T00:47:38.876Z,65.22
2023-03-28T00:50:22.330Z,65.25
2023-03-28T00:53:06.156Z,65.17
2023-03-28T00:55:50.949Z,65.23
2023-03-28T00:58:24.724Z,65.52
2023-03-28T01:00:52.055Z,65.60
2023-03-28T01:03:22.572Z,65.39
2023-03-28T01:05:49.694Z,65.33
2023-03-28T01:08:24.499Z,65.19
2023-03-28T01:10:51.644Z,65.69
2023-03-28T01:13:25.213Z,65.34
2023-03-28T01:15:52.592Z,65.32
2023-03-28T01:18:23.900Z,65.55
2023-03-28T01:21:06.131Z,65.27
2023-03-28T01:24:12.678Z,65.07
2023-03-28T01:27:02.154Z,65.16
2023-03-28T01:30:03.467Z,65.12
2023-03-28T01:32:54.899Z,65.34
2023-03-28T01:35:43.961Z,65.25
2023-03-28T01:38:39.416Z,65.35
2023-03-28T01:41:15.744Z,65.13
2023-03-28T01:44:20.213Z,65.40
2023-03-28T01:47:13.950Z,65.69
2023-03-28T01:50:07.190Z,65.89
2023-03-28T01:53:21.842Z,65.61
2023-03-28T01:56:11.280Z,66.58
2023-03-28T01:59:12.557Z,66.56
2023-03-28T02:02:17.964Z,66.27
2023-03-28T02:04:48.924Z,66.54
2023-03-28T02:07:20.340Z,66.47
2023-03-28T02:09:49.533Z,66.30
2023-03-28T02:12:25.101Z,66.53
2023-03-28T02:14:54.301Z,67.23
2023-03-28T02:17:24.437Z,66.73
2023-03-28T02:20:00.784Z,66.51
2023-03-28T02:22:48.327Z,66.55
2023-03-28T02:25:15.279Z,66.91
2023-03-28T02:27:44.947Z,66.74
2023-03-28T02:30:12.699Z,66.50
2023-03-28T02:32:40.419Z,66.98
2023-03-28T02:35:09.123Z,66.73
2023-03-28T02:37:45.554Z,67.19
2023-03-28T02:40:44.101Z,67.11
2023-03-28T02:43:35.533Z,67.60
2023-03-28T02:47:03.074Z,67.31
2023-03-28T02:49:50.341Z,67.11
2023-03-28T02:52:52.342Z,66.94
2023-03-28T02:55:34.063Z,66.55
2023-03-28T02:58:10.604Z,66.35
2023-03-28T03:00:39.342Z,66.38
2023-03-28T03:03:11.758Z,66.26
2023-03-28T03:05:38.753Z,66.34
2023-03-28T03:08:06.045Z,65.95
2023-03-28T03:10:33.064Z,66.55
2023-03-28T03:13:00.267Z,65.71
2023-03-28T03:15:30.724Z,65.96
2023-03-28T03:17:58.896Z,65.54
2023-03-28T03:20:27.652Z,65.25
2023-03-28T03:22:55.511Z,65.38
2023-03-28T03:25:22.613Z,65.08
2023-03-28T03:27:49.441Z,64.76
2023-03-28T03:30:16.502Z,65.10
2023-03-28T03:32:44.147Z,65.18
2023-03-28T03:35:11.479Z,64.87
2023-03-28T03:37:38.677Z,64.98
2023-03-28T03:40:06.830Z,64.92
2023-03-28T03:42:33.922Z,65.23
2023-03-28T03:45:00.783Z,64.75
2023-03-28T03:47:27.641Z,64.66
2023-03-28T03:49:54.505Z,64.36
2023-03-28T03:52:21.416Z,64.68
2023-03-28T03:54:48.282Z,64.48
2023-03-28T03:57:15.516Z,64.08
2023-03-28T03:59:42.375Z,64.42
2023-03-28T04:02:09.317Z,64.34
2023-03-28T04:04:36.980Z,64.43
2023-03-28T04:07:03.900Z,64.13
2023-03-28T04:09:30.830Z,64.40
2023-03-28T04:11:57.741Z,64.65
2023-03-28T04:14:24.711Z,64.74
2023-03-28T04:16:53.828Z,64.86
2023-03-28T04:19:21.283Z,64.75
2023-03-28T04:21:49.237Z,65.35
2023-03-28T04:24:17.043Z,64.79
2023-03-28T04:26:45.731Z,64.14
2023-03-28T04:29:13.298Z,64.44
2023-03-28T04:31:40.352Z,63.86
2023-03-28T04:34:07.677Z,63.47
2023-03-28T04:36:34.625Z,64.42
2023-03-28T04:39:04.459Z,64.05
2023-03-28T04:41:33.187Z,64.34
2023-03-28T04:44:01.161Z,64.15
2023-03-28T04:46:29.771Z,64.57
2023-03-28T04:48:57.130Z,64.51
2023-03-28T04:51:25.147Z,64.90
2023-03-28T04:53:52.114Z,64.58
2023-03-28T04:56:18.992Z,64.81
2023-03-28T04:58:45.890Z,65.24
2023-03-28T05:01:13.539Z,64.96
2023-03-28T05:03:40.912Z,64.76
2023-03-28T05:06:08.079Z,65.08
2023-03-28T05:08:34.934Z,65.05
2023-03-28T05:11:02.153Z,65.22
2023-03-28T05:13:29.268Z,64.87
2023-03-28T05:15:56.167Z,65.06
2023-03-28T05:18:23.056Z,65.43
2023-03-28T05:20:49.916Z,65.12
2023-03-28T05:23:16.803Z,65.16
2023-03-28T05:25:44.155Z,64.98
2023-03-28T05:28:11.039Z,65.39
2023-03-28T05:30:37.930Z,64.91
2023-03-28T05:33:04.729Z,65.42
2023-03-28T05:35:31.661Z,65.49
2023-03-28T05:37:58.601Z,65.04
2023-03-28T05:40:25.651Z,64.73
2023-03-28T05:42:52.579Z,64.60
2023-03-28T05:45:19.539Z,63.94
2023-03-28T05:47:46.518Z,64.69
2023-03-28T05:50:13.377Z,63.65
2023-03-28T05:52:40.175Z,64.17
2023-03-28T05:55:08.348Z,63.55
2023-03-28T05:57:35.559Z,62.48
2023-03-28T06:00:13.222Z,62.73
2023-03-28T06:02:40.820Z,62.33
2023-03-28T06:05:09.743Z,62.68
2023-03-28T06:07:42.660Z,62.65
2023-03-28T06:10:13.104Z,61.96
2023-03-28T06:12:40.354Z,61.95
2023-03-28T06:15:08.762Z,61.67
2023-03-28T06:17:35.902Z,61.62
2023-03-28T06:20:06.216Z,60.68
2023-03-28T06:22:33.596Z,60.02
2023-03-28T06:25:00.373Z,60.31
2023-03-28T06:27:27.296Z,59.36
2023-03-28T06:29:54.234Z,59.71
2023-03-28T06:32:21.228Z,58.90
2023-03-28T06:34:48.058Z,59.17
2023-03-28T06:37:14.901Z,58.94
2023-03-28T06:39:41.890Z,59.13
2023-03-28T06:42:08.769Z,58.61
2023-03-28T06:44:35.769Z,58.46
2023-03-28T06:47:02.826Z,59.41
2023-03-28T06:49:29.627Z,58.53
2023-03-28T06:51:56.452Z,58.35
2023-03-28T06:54:23.286Z,58.13
2023-03-28T06:56:50.139Z,58.24
2023-03-28T06:59:17.018Z,57.85
2023-03-28T07:01:43.993Z,57.03
2023-03-28T07:04:10.849Z,56.49
2023-03-28T07:06:37.943Z,56.23
2023-03-28T07:09:06.447Z,56.96
2023-03-28T07:11:33.739Z,56.29
2023-03-28T07:14:00.588Z,56.57
2023-03-28T07:16:27.518Z,56.16
2023-03-28T07:18:54.399Z,56.00
2023-03-28T07:21:21.301Z,54.57
2023-03-28T07:23:48.122Z,54.56
2023-03-28T07:26:16.141Z,53.26
2023-03-28T07:28:43.238Z,52.43
2023-03-28T07:31:12.133Z,53.03
2023-03-28T07:33:39.306Z,52.37
2023-03-28T07:36:16.532Z,52.77
2023-03-28T07:38:44.064Z,53.38
2023-03-28T07:41:12.799Z,53.08
2023-03-28T07:43:40.186Z,53.68
2023-03-28T07:46:16.836Z,53.53
2023-03-28T07:48:46.305Z,52.76
2023-03-28T07:51:14.272Z,52.81
2023-03-28T07:53:41.157Z,52.57
2023-03-28T07:56:12.768Z,52.84
2023-03-28T07:58:41.200Z,52.12
2023-03-28T08:01:10.947Z,50.90
2023-03-28T08:03:38.109Z,52.10
2023-03-28T08:06:20.015Z,50.89
2023-03-28T08:08:51.975Z,49.73
2023-03-28T08:11:18.981Z,50.40
2023-03-28T08:13:45.754Z,50.95
2023-03-28T08:16:12.742Z,49.94
2023-03-28T08:18:39.652Z,49.93
2023-03-28T08:21:08.080Z,49.09
2023-03-28T08:23:34.953Z,47.67
2023-03-28T08:26:07.327Z,47.40
2023-03-28T08:28:36.468Z,48.21
2023-03-28T08:31:14.253Z,47.88
2023-03-28T08:33:47.150Z,48.95
2023-03-28T08:36:14.910Z,47.74
2023-03-28T08:38:43.699Z,48.25
2023-03-28T08:41:32.456Z,48.14
2023-03-28T08:44:18.141Z,46.31
2023-03-28T08:46:46.538Z,45.21
2023-03-28T08:49:18.440Z,43.72
2023-03-28T08:52:01.729Z,44.40
2023-03-28T08:54:45.368Z,44.26
2023-03-28T08:57:20.668Z,44.56
2023-03-28T09:00:09.879Z,44.70
2023-03-28T09:02:37.196Z,44.36
2023-03-28T09:05:22.040Z,43.94
2023-03-28T09:08:44.990Z,41.99
2023-03-28T09:11:39.478Z,44.17
2023-03-28T09:14:40.957Z,42.20
2023-03-28T09:17:20.658Z,42.05
2023-03-28T09:20:15.159Z,42.29
2023-03-28T09:22:52.921Z,41.26
2023-03-28T09:25:52.706Z,39.51
2023-03-28T09:28:57.934Z,40.89
2023-03-28T09:31:33.851Z,40.76
2023-03-28T09:34:02.379Z,42.91
2023-03-28T09:36:45.623Z,41.44
2023-03-28T09:39:36.731Z,40.09
2023-03-28T09:42:49.005Z,40.54
2023-03-28T09:45:52.372Z,39.07
2023-03-28T09:48:36.872Z,39.05
2023-03-28T09:51:06.814Z,39.34
2023-03-28T09:53:36.942Z,38.81
2023-03-28T09:56:07.647Z,39.34
2023-03-28T09:59:11.875Z,38.54
2023-03-28T10:01:51.504Z,39.07
2023-03-28T10:04:27.557Z,39.37
2023-03-28T10:06:58.266Z,40.10
2023-03-28T10:09:28.326Z,40.24
2023-03-28T10:12:02.125Z,37.79
2023-03-28T10:14:37.465Z,39.73
2023-03-28T10:17:18.119Z,39.58
2023-03-28T10:19:47.355Z,39.60
2023-03-28T10:22:28.542Z,41.54
2023-03-28T10:24:55.798Z,41.37
2023-03-28T10:27:33.139Z,41.29
2023-03-28T10:30:29.422Z,39.37
2023-03-28T10:33:17.994Z,35.00
2023-03-28T10:36:33.460Z,35.66
2023-03-28T10:39:25.069Z,39.19
2023-03-28T10:41:57.771Z,36.48
2023-03-28T10:44:37.526Z,37.44
2023-03-28T10:47:12.674Z,36.02
2023-03-28T10:49:51.721Z,38.27
2023-03-28T10:52:51.465Z,37.18
2023-03-28T10:55:23.682Z,33.88
2023-03-28T10:58:05.591Z,34.39
2023-03-28T11:00:43.497Z,36.11
2023-03-28T11:03:49.023Z,36.86
2023-03-28T11:06:33.724Z,37.66
2023-03-28T11:09:42.276Z,37.98
2023-03-28T11:12:55.615Z,36.33
2023-03-28T11:16:00.035Z,35.01
2023-03-28T11:18:59.258Z,34.07
2023-03-28T11:21:41.373Z,35.66
2023-03-28T11:24:23.162Z,33.98
2023-03-28T11:27:15.982Z,33.48
2023-03-28T11:30:06.462Z,34.81
2023-03-28T11:32:44.187Z,35.31
2023-03-28T11:35:30.889Z,35.54
2023-03-28T11:38:25.141Z,36.54
2023-03-28T11:41:11.180Z,36.56
2023-03-28T11:44:01.340Z,36.28
2023-03-28T11:46:40.651Z,35.43
2023-03-28T11:49:28.687Z,31.37
2023-03-28T11:52:06.360Z,32.59
2023-03-28T11:54:47.470Z,30.79
2023-03-28T11:57:29.263Z,33.68
2023-03-28T12:00:32.110Z,32.91
2023-03-28T12:03:42.676Z,32.05
2023-03-28T12:06:49.041Z,30.44
2023-03-28T12:09:38.227Z,30.72
2023-03-28T12:12:11.697Z,30.44
2023-03-28T12:14:53.354Z,30.54
2023-03-28T12:17:53.184Z,31.56
2023-03-28T12:21:08.380Z,30.11
2023-03-28T12:24:03.638Z,28.10
2023-03-28T12:27:10.346Z,28.88
2023-03-28T12:29:53.519Z,27.75
2023-03-28T12:32:37.595Z,27.63
2023-03-28T12:35:39.665Z,27.19
2023-03-28T12:38:35.180Z,25.85
2023-03-28T12:41:05.982Z,25.63
2023-03-28T12:43:57.108Z,25.03
2023-03-28T12:46:38.010Z,25.46
2023-03-28T12:49:22.219Z,24.67
2023-03-28T12:52:12.579Z,25.14
2023-03-28T12:55:09.472Z,24.30
2023-03-28T12:57:45.235Z,24.63
2023-03-28T13:00:29.689Z,23.88
2023-03-28T13:03:18.388Z,22.91
2023-03-28T13:06:17.969Z,23.36
2023-03-28T13:09:24.643Z,24.50
2023-03-28T13:12:03.330Z,22.85
2023-03-28T13:14:34.906Z,21.69
2023-03-28T13:17:26.227Z,24.43
2023-03-28T13:20:13.286Z,22.69
2023-03-28T13:22:48.448Z,21.25
2023-03-28T13:25:33.502Z,21.92
2023-03-28T13:28:43.384Z,23.16
2023-03-28T13:31:23.273Z,21.85
2023-03-28T13:34:02.727Z,22.07
2023-03-28T13:36:34.947Z,21.69
2023-03-28T13:39:05.731Z,23.32
2023-03-28T13:41:41.067Z,22.88
2023-03-28T13:44:42.814Z,21.08
2023-03-28T13:47:20.105Z,20.18
2023-03-28T13:50:34.080Z,20.92
2023-03-28T13:53:01.695Z,21.49
2023-03-28T13:55:28.619Z,20.52
2023-03-28T13:57:55.557Z,19.81
2023-03-28T14:00:26.642Z,18.97
2023-03-28T14:03:03.356Z,19.44
2023-03-28T14:05:32.982Z,19.49
2023-03-28T14:08:21.940Z,23.01
2023-03-28T14:10:50.969Z,22.49
2023-03-28T14:13:26.561Z,20.96
2023-03-28T14:15:55.885Z,19.83
2023-03-28T14:18:46.024Z,19.60
2023-03-28T14:21:12.988Z,18.88
2023-03-28T14:23:57.800Z,19.43
2023-03-28T14:26:31.620Z,18.93
2023-03-28T14:29:04.700Z,19.35
2023-03-28T14:31:34.419Z,19.30
2023-03-28T14:34:27.108Z,21.69
2023-03-28T14:37:03.649Z,21.09
2023-03-28T14:39:34.909Z,21.44
2023-03-28T14:42:05.876Z,22.39
2023-03-28T14:44:39.637Z,22.15
2023-03-28T14:47:08.306Z,22.55
2023-03-28T14:49:37.515Z,24.19
2023-03-28T14:52:12.506Z,24.23
2023-03-28T14:54:46.869Z,24.26
2023-03-28T14:57:16.834Z,24.51
2023-03-28T14:59:50.942Z,23.88
2023-03-28T15:02:32.115Z,25.90
2023-03-28T15:05:04.112Z,26.70
2023-03-28T15:07:37.492Z,26.00
2023-03-28T15:10:12.082Z,24.84
2023-03-28T15:13:08.343Z,23.97
2023-03-28T15:15:45.264Z,23.87
2023-03-28T15:18:18.005Z,23.58
2023-03-28T15:20:53.002Z,23.10
2023-03-28T15:23:32.049Z,23.42
2023-03-28T15:26:05.296Z,23.20
2023-03-28T15:28:32.455Z,24.25
2023-03-28T15:31:02.795Z,26.36
2023-03-28T15:33:34.241Z,26.07
2023-03-28T15:36:06.634Z,27.05
2023-03-28T15:38:39.346Z,28.38
2023-03-28T15:41:24.329Z,28.71
2023-03-28T15:43:54.329Z,28.74
2023-03-28T15:46:33.398Z,29.64
2023-03-28T15:49:02.694Z,31.80
2023-03-28T15:51:43.770Z,30.87
2023-03-28T15:54:28.223Z,32.15
2023-03-28T15:57:00.085Z,32.69
2023-03-28T15:59:37.260Z,31.41
2023-03-28T16:02:22.899Z,32.31
2023-03-28T16:05:03.011Z,31.56
2023-03-28T16:07:47.543Z,32.12
2023-03-28T16:10:23.160Z,32.90
2023-03-28T16:12:53.125Z,32.09
2023-03-28T16:15:20.309Z,31.57
2023-03-28T16:17:48.787Z,31.77
2023-03-28T16:20:20.130Z,34.74
2023-03-28T16:22:47.386Z,32.92
2023-03-28T16:25:14.946Z,32.41
2023-03-28T16:27:42.940Z,32.35
2023-03-28T16:30:29.406Z,31.91
2023-03-28T16:32:56.449Z,31.78
2023-03-28T16:35:23.360Z,31.38
2023-03-28T16:37:50.521Z,31.40
2023-03-28T16:40:17.516Z,31.38
2023-03-28T16:42:44.438Z,31.70
2023-03-28T16:45:13.036Z,31.72
2023-03-28T16:47:40.826Z,33.20
2023-03-28T16:50:10.028Z,33.52
2023-03-28T16:52:40.391Z,33.36
2023-03-28T16:55:13.821Z,34.33
2023-03-28T16:57:41.707Z,33.88
2023-03-28T17:00:16.004Z,33.77
2023-03-28T17:02:43.369Z,33.76
2023-03-28T17:05:10.454Z,34.82
2023-03-28T17:07:37.252Z,34.31
2023-03-28T17:10:04.494Z,35.48
2023-03-28T17:12:31.849Z,35.29
2023-03-28T17:14:59.196Z,35.10
2023-03-28T17:17:26.126Z,34.78
2023-03-28T17:19:52.985Z,35.66
2023-03-28T17:22:19.908Z,35.40
2023-03-28T17:24:46.894Z,36.32
2023-03-28T17:27:14.596Z,36.57
2023-03-28T17:29:41.559Z,37.43
2023-03-28T17:32:08.589Z,37.14
2023-03-28T17:34:36.522Z,37.38
2023-03-28T17:37:04.091Z,37.69
2023-03-28T17:39:31.266Z,38.90
2023-03-28T17:41:58.224Z,39.24
2023-03-28T17:44:25.493Z,40.70
2023-03-28T17:46:54.332Z,42.04
2023-03-28T17:49:22.466Z,43.59
2023-03-28T17:51:49.922Z,45.25
2023-03-28T17:54:17.282Z,45.51
2023-03-28T17:56:44.519Z,45.45
2023-03-28T17:59:12.301Z,45.83
2023-03-28T18:01:39.500Z,45.41
2023-03-28T18:04:06.788Z,45.44
2023-03-28T18:06:38.660Z,45.86
2023-03-28T18:09:05.574Z,45.71
2023-03-28T18:11:32.532Z,46.05
2023-03-28T18:13:59.506Z,47.19
2023-03-28T18:16:27.818Z,47.75
2023-03-28T18:18:55.206Z,48.58
2023-03-28T18:21:22.316Z,48.42
2023-03-28T18:23:49.385Z,48.75
2023-03-28T18:26:18.875Z,49.00
2023-03-28T18:28:49.061Z,48.98
2023-03-28T18:31:19.999Z,49.11
2023-03-28T18:33:46.930Z,49.08
2023-03-28T18:36:14.383Z,49.20
2023-03-28T18:38:44.085Z,49.07
2023-03-28T18:41:12.765Z,49.47
2023-03-28T18:43:42.430Z,49.24
2023-03-28T18:48:40.423Z,48.48
2023-03-28T18:51:07.755Z,48.36
2023-03-28T18:53:37.675Z,48.25
2023-03-28T18:56:06.849Z,48.11
2023-03-28T18:58:36.099Z,48.46
2023-03-28T19:01:03.757Z,48.80
2023-03-28T19:03:40.076Z,49.38
2023-03-28T19:06:09.212Z,49.09
2023-03-28T19:08:36.518Z,49.04
2023-03-28T19:11:14.690Z,48.95
2023-03-28T19:13:42.431Z,48.67
2023-03-28T19:16:15.377Z,48.79
2023-03-28T19:18:44.632Z,49.00
2023-03-28T19:21:12.390Z,48.95
2023-03-28T19:23:41.208Z,49.31
2023-03-28T19:26:11.352Z,49.29
2023-03-28T19:28:39.089Z,49.51
2023-03-28T19:31:08.455Z,49.45
2023-03-28T19:33:37.198Z,49.57
2023-03-28T19:36:06.254Z,49.71
2023-03-28T19:38:36.045Z,49.82
2023-03-28T19:41:11.255Z,49.97
2023-03-28T19:43:39.057Z,50.14
2023-03-28T19:46:15.461Z,50.08
2023-03-28T19:48:42.491Z,49.86
2023-03-28T19:51:09.975Z,49.53
2023-03-28T19:53:37.094Z,49.06
2023-03-28T19:56:04.961Z,49.16
2023-03-28T19:58:32.482Z,49.07
2023-03-28T20:01:00.363Z,49.20
2023-03-28T20:03:27.655Z,49.28
2023-03-28T20:05:54.534Z,49.50
2023-03-28T20:08:21.538Z,50.11
2023-03-28T20:10:50.159Z,50.08
2023-03-28T20:13:17.996Z,50.06
2023-03-28T20:15:46.820Z,50.37
2023-03-28T20:18:20.070Z,50.45
2023-03-28T20:20:56.051Z,50.43
2023-03-28T20:23:24.915Z,50.73
2023-03-28T20:25:53.303Z,51.14
2023-03-28T20:28:24.354Z,50.47
2023-03-28T20:30:53.375Z,50.53
2023-03-28T20:33:20.696Z,50.26
2023-03-28T20:35:56.834Z,50.03
2023-03-28T20:38:25.336Z,49.88
2023-03-28T20:40:52.402Z,50.00
2023-03-28T20:43:26.710Z,50.09
2023-03-28T20:45:58.248Z,49.99
2023-03-28T20:48:34.230Z,50.37
2023-03-28T20:51:14.264Z,50.15
2023-03-28T20:53:47.388Z,50.29
2023-03-28T20:56:14.639Z,50.77
2023-03-28T20:58:42.522Z,50.59
2023-03-28T21:01:12.892Z,51.14
2023-03-28T21:03:50.279Z,50.85
2023-03-28T21:06:26.223Z,50.80
2023-03-28T21:08:56.844Z,51.29
2023-03-28T21:11:27.340Z,51.50
2023-03-28T21:13:55.862Z,51.94
2023-03-28T21:16:23.615Z,51.96
2023-03-28T21:18:51.111Z,51.48
2023-03-28T21:21:20.021Z,51.41
2023-03-28T21:23:47.808Z,51.32
2023-03-28T21:26:21.338Z,52.06
2023-03-28T21:28:49.182Z,52.22
2023-03-28T21:31:24.814Z,52.48
2023-03-28T21:33:58.985Z,52.46
2023-03-28T21:36:27.137Z,52.72
2023-03-28T21:38:54.870Z,52.88
2023-03-28T21:41:22.630Z,53.02
2023-03-28T21:43:50.162Z,53.24
2023-03-28T21:46:18.680Z,53.20
2023-03-28T21:48:47.853Z,52.96
2023-03-28T21:51:15.743Z,52.59
2023-03-28T21:53:42.639Z,51.90
2023-03-28T21:56:11.669Z,51.97
2023-03-28T21:58:38.646Z,52.38
2023-03-28T22:01:06.080Z,53.05
2023-03-28T22:03:37.395Z,53.12
2023-03-28T22:06:04.981Z,53.33
2023-03-28T22:08:32.478Z,53.14
2023-03-28T22:11:04.428Z,53.25
2023-03-28T22:13:31.574Z,53.23
2023-03-28T22:15:59.514Z,53.53
2023-03-28T22:18:27.814Z,52.96
2023-03-28T22:20:54.966Z,53.13
2023-03-28T22:23:23.881Z,52.67
2023-03-28T22:25:52.792Z,51.93
2023-03-28T22:28:24.277Z,51.71
2023-03-28T22:30:55.109Z,52.10
2023-03-28T22:33:23.475Z,52.41
2023-03-28T22:35:50.528Z,52.25
2023-03-28T22:38:19.165Z,52.19
2023-03-28T22:40:47.287Z,52.33
2023-03-28T22:43:14.173Z,52.01
2023-03-28T22:45:41.520Z,50.61
2023-03-28T22:48:14.721Z,50.81
2023-03-28T22:50:46.232Z,50.74
2023-03-28T22:53:14.682Z,51.04
2023-03-28T22:55:43.513Z,50.84
2023-03-28T22:58:10.639Z,49.52
2023-03-28T23:00:37.490Z,49.70
2023-03-28T23:03:04.462Z,50.04
2023-03-28T23:05:31.906Z,50.44
2023-03-28T23:08:00.011Z,49.70
2023-03-28T23:10:27.279Z,49.93
2023-03-28T23:12:54.108Z,50.07
2023-03-28T23:15:20.966Z,50.45
2023-03-28T23:17:48.131Z,50.60
2023-03-28T23:20:16.977Z,49.32
2023-03-28T23:22:47.295Z,48.79
2023-03-28T23:25:18.291Z,49.09
2023-03-28T23:27:45.767Z,49.70
2023-03-28T23:30:14.920Z,50.73
2023-03-28T23:32:41.898Z,51.80
2023-03-28T23:35:10.455Z,52.66
2023-03-28T23:37:38.452Z,53.09
2023-03-28T23:40:10.534Z,52.34
2023-03-28T23:42:37.436Z,52.10
2023-03-28T23:45:04.801Z,52.01
2023-03-28T23:47:31.638Z,52.54
2023-03-28T23:49:58.561Z,52.32
2023-03-28T23:52:25.359Z,52.09
2023-03-28T23:54:52.270Z,52.61
2023-03-28T23:57:19.130Z,52.27
2023-03-28T23:59:45.997Z,52.52
